createdAt,value
2018-04-25T00:00:09.212Z,18.52
2018-04-25T00:00:43.076Z,17.87
2018-04-25T00:01:16.940Z,20.77
2018-04-25T00:01:50.793Z,18.80
2018-04-25T00:02:24.662Z,17.83
2018-04-25T00:02:58.527Z,22.15
2018-04-25T00:03:32.404Z,17.50
2018-04-25T00:04:06.433Z,18.62
2018-04-25T00:04:40.306Z,18.70
2018-04-25T00:05:15.096Z,20.58
2018-04-25T00:05:48.968Z,18.70
2018-04-25T00:06:22.848Z,19.65
2018-04-25T00:06:56.718Z,20.73
2018-04-25T00:07:30.609Z,17.45
2018-04-25T00:08:04.477Z,20.40
2018-04-25T00:08:38.344Z,18.25
2018-04-25T00:09:12.235Z,20.25
2018-04-25T00:09:46.136Z,20.30
2018-04-25T00:10:20.007Z,19.52
2018-04-25T00:10:53.864Z,21.80
2018-04-25T00:11:27.763Z,19.40
2018-04-25T00:12:01.685Z,19.15
2018-04-25T00:12:35.553Z,18.90
2018-04-25T00:13:09.416Z,18.70
2018-04-25T00:13:43.275Z,17.73
2018-04-25T00:14:17.164Z,19.23
2018-04-25T00:14:51.070Z,19.58
2018-04-25T00:15:24.940Z,19.23
2018-04-25T00:15:58.888Z,17.90
2018-04-25T00:16:32.746Z,18.15
2018-04-25T00:17:06.643Z,19.83
2018-04-25T00:17:40.532Z,18.30
2018-04-25T00:18:14.428Z,20.30
2018-04-25T00:18:48.304Z,22.90
2018-04-25T00:19:22.205Z,17.65
2018-04-25T00:19:56.132Z,18.00
2018-04-25T00:20:30.005Z,18.00
2018-04-25T00:21:03.877Z,18.50
2018-04-25T00:21:37.746Z,19.95
2018-04-25T00:22:11.612Z,19.15
2018-04-25T00:22:45.484Z,18.77
2018-04-25T00:23:19.346Z,17.02
2018-04-25T00:23:53.223Z,18.67
2018-04-25T00:24:27.205Z,24.63
2018-04-25T00:25:01.032Z,18.77
2018-04-25T00:25:34.902Z,17.12
2018-04-25T00:26:08.760Z,19.40
2018-04-25T00:26:42.644Z,17.90
2018-04-25T00:27:16.528Z,17.30
2018-04-25T00:27:50.407Z,19.73
2018-04-25T00:28:24.276Z,21.62
2018-04-25T00:28:58.134Z,18.85
2018-04-25T00:29:32.070Z,19.50
2018-04-25T00:30:05.932Z,18.85
2018-04-25T00:30:39.816Z,17.33
2018-04-25T00:31:13.693Z,19.37
2018-04-25T00:31:47.592Z,19.45
2018-04-25T00:32:21.448Z,19.70
2018-04-25T00:32:55.332Z,18.12
2018-04-25T00:33:29.241Z,18.60
2018-04-25T00:34:03.104Z,19.60
2018-04-25T00:34:36.963Z,19.42
2018-04-25T00:35:10.838Z,19.12
2018-04-25T00:35:44.715Z,19.42
2018-04-25T00:36:18.576Z,19.52
2018-04-25T00:36:52.489Z,17.95
2018-04-25T00:37:26.359Z,19.08
2018-04-25T00:38:00.370Z,22.25
2018-04-25T00:38:34.264Z,18.08
2018-04-25T00:39:08.151Z,18.33
2018-04-25T00:39:42.031Z,19.50
2018-04-25T00:40:15.937Z,17.98
2018-04-25T00:40:49.801Z,19.65
2018-04-25T00:41:23.672Z,20.92
2018-04-25T00:41:57.551Z,18.42
2018-04-25T00:42:31.436Z,19.55
2018-04-25T00:43:05.313Z,18.10
2018-04-25T00:43:39.190Z,20.58
2018-04-25T00:44:13.054Z,19.05
2018-04-25T00:44:46.930Z,18.17
2018-04-25T00:45:20.811Z,18.20
2018-04-25T00:45:54.713Z,18.58
2018-04-25T00:46:28.588Z,19.70
2018-04-25T00:47:02.492Z,19.15
2018-04-25T00:47:36.387Z,18.35
2018-04-25T00:48:10.251Z,21.73
2018-04-25T00:48:44.134Z,20.98
2018-04-25T00:49:18.002Z,19.27
2018-04-25T00:49:51.904Z,19.92
2018-04-25T00:50:25.774Z,17.23
2018-04-25T00:50:59.649Z,18.30
2018-04-25T00:51:33.597Z,20.27
2018-04-25T00:52:07.493Z,18.45
2018-04-25T00:52:41.404Z,19.12
2018-04-25T00:53:15.340Z,18.05
2018-04-25T00:53:49.223Z,19.50
2018-04-25T00:54:23.089Z,18.77
2018-04-25T00:54:56.971Z,20.83
2018-04-25T00:55:31.110Z,17.70
2018-04-25T00:56:04.977Z,18.10
2018-04-25T00:56:38.834Z,18.50
2018-04-25T00:57:12.729Z,19.65
2018-04-25T00:57:46.604Z,18.50
2018-04-25T00:58:20.472Z,19.08
2018-04-25T00:58:54.346Z,20.33
2018-04-25T00:59:28.298Z,23.77
2018-04-25T01:00:02.106Z,19.30
2018-04-25T01:00:35.983Z,18.23
2018-04-25T01:01:09.867Z,18.42
2018-04-25T01:01:43.739Z,18.92
2018-04-25T01:02:17.596Z,18.52
2018-04-25T01:02:51.464Z,19.60
2018-04-25T01:03:25.328Z,19.12
2018-04-25T01:03:59.276Z,18.52
2018-04-25T01:04:33.207Z,19.02
2018-04-25T01:05:07.124Z,19.87
2018-04-25T01:05:41.223Z,17.23
2018-04-25T01:06:15.084Z,19.67
2018-04-25T01:06:48.959Z,18.62
2018-04-25T01:07:22.830Z,18.15
2018-04-25T01:07:56.703Z,18.98
2018-04-25T01:08:30.624Z,20.00
2018-04-25T01:09:04.505Z,18.62
2018-04-25T01:09:38.373Z,16.48
2018-04-25T01:10:12.257Z,19.62
2018-04-25T01:10:46.122Z,20.35
2018-04-25T01:11:20.032Z,19.15
2018-04-25T01:11:54.031Z,20.05
2018-04-25T01:12:27.783Z,20.25
2018-04-25T01:13:01.658Z,20.25
2018-04-25T01:13:35.549Z,18.70
2018-04-25T01:14:09.418Z,22.37
2018-04-25T01:14:43.265Z,19.73
2018-04-25T01:15:17.156Z,18.33
2018-04-25T01:15:51.030Z,19.85
2018-04-25T01:16:24.904Z,19.87
2018-04-25T01:16:58.777Z,18.62
2018-04-25T01:17:32.831Z,19.90
2018-04-25T01:18:06.743Z,18.60
2018-04-25T01:18:41.583Z,18.48
2018-04-25T01:19:15.452Z,21.52
2018-04-25T01:19:49.316Z,18.48
2018-04-25T01:20:23.190Z,19.15
2018-04-25T01:20:57.319Z,19.10
2018-04-25T01:21:31.216Z,18.58
2018-04-25T01:22:05.068Z,20.10
2018-04-25T01:22:39.014Z,18.77
2018-04-25T01:23:18.943Z,20.12
2018-04-25T01:23:52.805Z,21.20
2018-04-25T01:24:26.723Z,19.05
2018-04-25T01:25:01.508Z,18.92
2018-04-25T01:25:35.406Z,18.58
2018-04-25T01:26:09.279Z,21.58
2018-04-25T01:26:43.140Z,21.35
2018-04-25T01:27:17.004Z,19.62
2018-04-25T01:27:51.745Z,18.35
2018-04-25T01:28:25.615Z,20.17
2018-04-25T01:28:59.476Z,19.25
2018-04-25T01:29:33.399Z,19.55
2018-04-25T01:30:07.264Z,19.15
2018-04-25T01:30:56.835Z,21.08
2018-04-25T01:31:33.759Z,20.75
2018-04-25T01:32:07.666Z,19.10
2018-04-25T01:32:41.669Z,18.35
2018-04-25T01:33:21.222Z,19.85
2018-04-25T01:33:55.091Z,18.75
2018-04-25T01:34:29.657Z,20.12
2018-04-25T01:35:03.516Z,19.70
2018-04-25T01:35:37.392Z,19.90
2018-04-25T01:36:27.088Z,20.10
2018-04-25T01:37:00.950Z,18.40
2018-04-25T01:37:40.587Z,20.40
2018-04-25T01:38:14.455Z,19.60
2018-04-25T01:38:48.968Z,20.58
2018-04-25T01:39:31.668Z,19.83
2018-04-25T01:40:06.588Z,22.70
2018-04-25T01:40:40.448Z,20.92
2018-04-25T01:41:14.624Z,19.35
2018-04-25T01:41:48.686Z,19.25
2018-04-25T01:42:24.466Z,20.25
2018-04-25T01:42:59.135Z,19.83
2018-04-25T01:43:33.040Z,18.62
2018-04-25T01:44:26.995Z,22.77
2018-04-25T01:45:01.674Z,19.08
2018-04-25T01:45:50.464Z,20.80
2018-04-25T01:46:26.149Z,18.40
2018-04-25T01:47:00.780Z,17.98
2018-04-25T01:47:35.503Z,19.67
2018-04-25T01:48:15.339Z,21.02
2018-04-25T01:49:52.127Z,20.33
2018-04-25T01:50:40.897Z,18.83
2018-04-25T01:51:20.501Z,17.08
2018-04-25T01:52:00.236Z,19.12
2018-04-25T01:52:39.959Z,21.83
2018-04-25T01:53:19.731Z,19.90
2018-04-25T01:53:59.600Z,21.33
2018-04-25T01:54:39.232Z,19.08
2018-04-25T01:55:18.834Z,20.90
2018-04-25T01:55:58.929Z,19.58
2018-04-25T01:56:38.545Z,20.60
2018-04-25T01:57:18.228Z,19.85
2018-04-25T01:57:57.872Z,20.90
2018-04-25T01:58:37.440Z,22.25
2018-04-25T01:59:17.100Z,20.08
2018-04-25T01:59:56.655Z,19.87
2018-04-25T02:00:36.282Z,18.85
2018-04-25T02:01:15.982Z,19.73
2018-04-25T02:01:49.635Z,20.52
2018-04-25T02:02:23.297Z,20.67
2018-04-25T02:02:56.940Z,20.23
2018-04-25T02:03:36.636Z,23.20
2018-04-25T02:04:10.529Z,22.02
2018-04-25T02:04:44.388Z,19.15
2018-04-25T02:05:18.275Z,19.48
2018-04-25T02:05:52.166Z,19.95
2018-04-25T02:06:26.025Z,21.45
2018-04-25T02:06:59.891Z,20.67
2018-04-25T02:07:33.844Z,21.10
2018-04-25T02:08:07.739Z,19.87
2018-04-25T02:08:41.703Z,23.02
2018-04-25T02:09:15.828Z,22.30
2018-04-25T02:09:49.831Z,20.52
2018-04-25T02:10:23.712Z,19.00
2018-04-25T02:10:57.571Z,23.23
2018-04-25T02:11:31.436Z,21.12
2018-04-25T02:12:05.296Z,21.60
2018-04-25T02:12:39.507Z,21.70
2018-04-25T02:13:13.376Z,20.65
2018-04-25T02:13:47.235Z,28.45
2018-04-25T02:14:21.131Z,21.08
2018-04-25T02:14:55.033Z,20.58
2018-04-25T02:15:29.008Z,21.30
2018-04-25T02:16:03.101Z,21.02
2018-04-25T02:16:37.108Z,20.17
2018-04-25T02:17:10.986Z,21.48
2018-04-25T02:17:44.853Z,20.42
2018-04-25T02:18:18.719Z,25.30
2018-04-25T02:18:52.579Z,20.35
2018-04-25T02:19:26.557Z,19.85
2018-04-25T02:20:00.460Z,24.98
2018-04-25T02:20:34.345Z,19.08
2018-04-25T02:21:08.196Z,24.90
2018-04-25T02:21:42.071Z,20.05
2018-04-25T02:22:15.965Z,20.77
2018-04-25T02:22:49.875Z,21.00
2018-04-25T02:23:23.757Z,24.08
2018-04-25T02:23:57.737Z,25.52
2018-04-25T02:24:31.602Z,21.55
2018-04-25T02:25:05.467Z,21.27
2018-04-25T02:25:39.416Z,20.10
2018-04-25T02:26:13.286Z,23.40
2018-04-25T02:26:47.193Z,19.98
2018-04-25T02:27:21.057Z,20.58
2018-04-25T02:27:54.995Z,22.60
2018-04-25T02:28:29.005Z,20.48
2018-04-25T02:29:02.865Z,21.95
2018-04-25T02:29:36.727Z,20.55
2018-04-25T02:30:10.580Z,22.92
2018-04-25T02:30:44.470Z,23.70
2018-04-25T02:31:18.665Z,20.60
2018-04-25T02:31:52.534Z,22.92
2018-04-25T02:32:26.410Z,21.90
2018-04-25T02:33:00.290Z,22.00
2018-04-25T02:33:34.169Z,22.75
2018-04-25T02:34:08.046Z,23.52
2018-04-25T02:34:41.925Z,20.80
2018-04-25T02:35:15.820Z,22.25
2018-04-25T02:35:49.845Z,21.02
2018-04-25T02:36:23.724Z,21.87
2018-04-25T02:36:57.597Z,19.90
2018-04-25T02:37:31.616Z,21.45
2018-04-25T02:38:05.511Z,21.55
2018-04-25T02:38:39.461Z,23.23
2018-04-25T02:39:13.337Z,25.88
2018-04-25T02:39:47.220Z,20.60
2018-04-25T02:40:21.195Z,19.52
2018-04-25T02:40:55.203Z,19.90
2018-04-25T02:41:29.216Z,19.87
2018-04-25T02:42:03.071Z,21.85
2018-04-25T02:42:36.952Z,21.10
2018-04-25T02:43:11.002Z,20.85
2018-04-25T02:43:44.879Z,24.00
2018-04-25T02:44:18.761Z,21.52
2018-04-25T02:44:52.635Z,19.98
2018-04-25T02:45:26.506Z,20.25
2018-04-25T02:46:00.385Z,21.27
2018-04-25T02:46:34.384Z,20.48
2018-04-25T02:47:08.247Z,22.15
2018-04-25T02:47:42.128Z,21.02
2018-04-25T02:48:16.221Z,22.62
2018-04-25T02:48:50.137Z,21.95
2018-04-25T02:49:24.015Z,19.65
2018-04-25T02:49:57.900Z,24.45
2018-04-25T02:50:31.777Z,22.45
2018-04-25T02:51:05.687Z,26.42
2018-04-25T02:51:39.579Z,20.40
2018-04-25T02:52:13.476Z,23.02
2018-04-25T02:52:47.357Z,22.92
2018-04-25T02:53:21.340Z,23.55
2018-04-25T02:53:55.159Z,22.75
2018-04-25T02:54:29.302Z,22.10
2018-04-25T02:55:03.181Z,21.87
2018-04-25T02:55:37.036Z,23.55
2018-04-25T02:56:10.906Z,23.45
2018-04-25T02:56:44.764Z,25.42
2018-04-25T02:57:18.642Z,24.52
2018-04-25T02:57:52.530Z,22.05
2018-04-25T02:58:26.405Z,29.52
2018-04-25T02:59:00.382Z,21.90
2018-04-25T02:59:34.208Z,23.67
2018-04-25T03:00:08.075Z,26.20
2018-04-25T03:00:41.964Z,22.92
2018-04-25T03:01:15.830Z,25.37
2018-04-25T03:01:49.712Z,24.00
2018-04-25T03:02:23.643Z,24.90
2018-04-25T03:02:57.505Z,27.67
2018-04-25T03:03:31.419Z,27.40
2018-04-25T03:04:05.280Z,23.17
2018-04-25T03:04:39.147Z,23.02
2018-04-25T03:05:13.306Z,23.50
2018-04-25T03:05:47.208Z,24.05
2018-04-25T03:06:21.077Z,24.02
2018-04-25T03:06:54.949Z,23.38
2018-04-25T03:07:28.904Z,22.98
2018-04-25T03:08:02.775Z,23.92
2018-04-25T03:08:36.674Z,25.75
2018-04-25T03:09:10.538Z,27.17
2018-04-25T03:09:44.578Z,22.75
2018-04-25T03:10:18.452Z,25.05
2018-04-25T03:10:52.350Z,21.65
2018-04-25T03:11:26.257Z,23.77
2018-04-25T03:12:00.105Z,24.75
2018-04-25T03:12:34.037Z,24.70
2018-04-25T03:13:07.903Z,20.20
2018-04-25T03:13:42.012Z,22.10
2018-04-25T03:14:15.886Z,20.02
2018-04-25T03:14:49.743Z,22.10
2018-04-25T03:15:23.644Z,21.83
2018-04-25T03:15:57.504Z,19.95
2018-04-25T03:16:31.375Z,21.77
2018-04-25T03:17:05.236Z,20.52
2018-04-25T03:17:39.117Z,22.80
2018-04-25T03:18:12.983Z,22.77
2018-04-25T03:18:46.896Z,20.37
2018-04-25T03:19:20.776Z,22.67
2018-04-25T03:19:54.989Z,25.40
2018-04-25T03:20:28.848Z,21.85
2018-04-25T03:21:02.715Z,21.55
2018-04-25T03:21:36.593Z,23.80
2018-04-25T03:22:10.459Z,20.65
2018-04-25T03:22:44.312Z,22.25
2018-04-25T03:23:18.181Z,22.33
2018-04-25T03:23:52.160Z,26.62
2018-04-25T03:24:26.057Z,23.45
2018-04-25T03:24:59.971Z,20.40
2018-04-25T03:25:33.923Z,20.45
2018-04-25T03:26:07.792Z,19.30
2018-04-25T03:26:41.677Z,18.52
2018-04-25T03:27:15.775Z,20.30
2018-04-25T03:27:49.835Z,19.40
2018-04-25T03:28:23.719Z,19.92
2018-04-25T03:28:57.640Z,18.65
2018-04-25T03:29:32.091Z,18.42
2018-04-25T03:30:05.999Z,20.80
2018-04-25T03:30:39.992Z,21.73
2018-04-25T03:31:13.845Z,21.52
2018-04-25T03:31:47.757Z,21.55
2018-04-25T03:32:21.734Z,21.08
2018-04-25T03:32:55.619Z,20.40
2018-04-25T03:33:29.637Z,20.25
2018-04-25T03:34:03.726Z,20.83
2018-04-25T03:34:37.610Z,21.48
2018-04-25T03:35:11.473Z,21.95
2018-04-25T03:35:45.608Z,22.67
2018-04-25T03:36:19.475Z,19.62
2018-04-25T03:36:53.334Z,20.73
2018-04-25T03:37:27.339Z,18.50
2018-04-25T03:38:01.232Z,20.55
2018-04-25T03:38:35.095Z,20.12
2018-04-25T03:39:08.983Z,20.90
2018-04-25T03:39:42.847Z,19.35
2018-04-25T03:40:16.708Z,20.12
2018-04-25T03:40:50.575Z,20.30
2018-04-25T03:41:24.436Z,20.30
2018-04-25T03:41:58.305Z,20.15
2018-04-25T03:42:32.170Z,19.20
2018-04-25T03:43:06.093Z,19.25
2018-04-25T03:43:40.028Z,21.25
2018-04-25T03:44:13.910Z,21.00
2018-04-25T03:44:47.800Z,18.23
2018-04-25T03:45:21.663Z,20.42
2018-04-25T03:45:55.541Z,18.85
2018-04-25T03:46:29.407Z,21.48
2018-04-25T03:47:03.268Z,19.80
2018-04-25T03:47:37.172Z,17.42
2018-04-25T03:48:11.077Z,19.33
2018-04-25T03:48:44.940Z,18.75
2018-04-25T03:49:18.828Z,19.87
2018-04-25T03:49:52.689Z,18.12
2018-04-25T03:50:26.609Z,20.48
2018-04-25T03:51:00.676Z,21.10
2018-04-25T03:51:34.535Z,18.30
2018-04-25T03:52:08.403Z,20.85
2018-04-25T03:52:42.273Z,20.58
2018-04-25T03:53:16.154Z,20.85
2018-04-25T03:53:50.029Z,20.50
2018-04-25T03:54:23.895Z,18.90
2018-04-25T03:54:57.755Z,19.37
2018-04-25T03:55:31.606Z,22.92
2018-04-25T03:56:05.582Z,20.05
2018-04-25T03:56:39.825Z,24.73
2018-04-25T03:57:14.606Z,20.10
2018-04-25T03:57:48.512Z,21.12
2018-04-25T03:58:22.407Z,20.17
2018-04-25T03:58:56.287Z,19.37
2018-04-25T03:59:30.186Z,18.17
2018-04-25T04:00:04.065Z,19.33
2018-04-25T04:00:38.156Z,20.73
2018-04-25T04:01:12.241Z,17.20
2018-04-25T04:01:46.112Z,18.48
2018-04-25T04:02:20.124Z,18.75
2018-04-25T04:02:53.986Z,19.42
2018-04-25T04:03:28.039Z,19.80
2018-04-25T04:04:01.908Z,22.15
2018-04-25T04:04:35.817Z,21.35
2018-04-25T04:05:09.789Z,17.92
2018-04-25T04:05:43.729Z,19.58
2018-04-25T04:06:17.624Z,18.15
2018-04-25T04:06:51.562Z,20.65
2018-04-25T04:07:25.424Z,19.20
2018-04-25T04:07:59.395Z,19.25
2018-04-25T04:08:33.338Z,19.95
2018-04-25T04:09:07.267Z,19.80
2018-04-25T04:09:41.188Z,19.50
2018-04-25T04:10:15.046Z,20.98
2018-04-25T04:10:48.948Z,22.80
2018-04-25T04:11:22.809Z,21.45
2018-04-25T04:11:56.868Z,19.58
2018-04-25T04:12:30.774Z,19.15
2018-04-25T04:13:04.674Z,18.67
2018-04-25T04:13:38.529Z,19.77
2018-04-25T04:14:13.130Z,18.87
2018-04-25T04:14:47.018Z,19.90
2018-04-25T04:15:20.915Z,20.42
2018-04-25T04:15:54.851Z,19.77
2018-04-25T04:16:28.752Z,21.27
2018-04-25T04:17:02.650Z,19.10
2018-04-25T04:17:36.515Z,18.95
2018-04-25T04:18:10.382Z,18.92
2018-04-25T04:18:44.260Z,19.92
2018-04-25T04:19:18.129Z,24.58
2018-04-25T04:19:51.999Z,19.83
2018-04-25T04:20:25.890Z,21.80
2018-04-25T04:20:59.748Z,19.48
2018-04-25T04:21:33.743Z,21.23
2018-04-25T04:22:07.623Z,20.60
2018-04-25T04:22:41.576Z,20.83
2018-04-25T04:23:15.469Z,18.42
2018-04-25T04:23:49.472Z,17.70
2018-04-25T04:24:23.667Z,19.80
2018-04-25T04:24:57.584Z,19.08
2018-04-25T04:25:31.427Z,18.10
2018-04-25T04:26:05.352Z,19.73
2018-04-25T04:26:39.357Z,18.50
2018-04-25T04:27:13.240Z,21.17
2018-04-25T04:27:47.098Z,19.40
2018-04-25T04:28:20.980Z,18.35
2018-04-25T04:28:54.929Z,20.30
2018-04-25T04:29:28.863Z,19.92
2018-04-25T04:30:02.774Z,20.40
2018-04-25T04:30:36.864Z,17.25
2018-04-25T04:31:10.765Z,19.33
2018-04-25T04:31:44.665Z,19.58
2018-04-25T04:32:18.533Z,18.37
2018-04-25T04:32:52.400Z,23.12
2018-04-25T04:33:26.503Z,20.67
2018-04-25T04:34:00.372Z,22.35
2018-04-25T04:34:34.246Z,18.48
2018-04-25T04:35:08.186Z,20.12
2018-04-25T04:35:42.055Z,17.62
2018-04-25T04:36:16.080Z,19.05
2018-04-25T04:36:49.973Z,20.15
2018-04-25T04:37:23.903Z,18.48
2018-04-25T04:37:57.837Z,18.00
2018-04-25T04:38:31.700Z,17.08
2018-04-25T04:39:05.603Z,18.98
2018-04-25T04:39:39.511Z,21.45
2018-04-25T04:40:14.487Z,18.17
2018-04-25T04:40:48.519Z,17.52
2018-04-25T04:41:22.394Z,20.77
2018-04-25T04:41:56.265Z,17.90
2018-04-25T04:42:30.121Z,16.90
2018-04-25T04:43:03.996Z,17.27
2018-04-25T04:43:37.897Z,17.85
2018-04-25T04:44:11.767Z,18.30
2018-04-25T04:44:45.686Z,17.58
2018-04-25T04:45:19.588Z,20.60
2018-04-25T04:45:53.472Z,17.12
2018-04-25T04:46:27.365Z,18.67
2018-04-25T04:47:01.243Z,16.40
2018-04-25T04:47:35.123Z,16.73
2018-04-25T04:48:09.006Z,17.58
2018-04-25T04:48:42.863Z,16.33
2018-04-25T04:49:16.734Z,16.10
2018-04-25T04:49:50.605Z,17.98
2018-04-25T04:50:24.520Z,16.62
2018-04-25T04:50:58.391Z,17.05
2018-04-25T04:51:32.262Z,19.33
2018-04-25T04:52:06.126Z,17.70
2018-04-25T04:52:40.012Z,19.73
2018-04-25T04:53:13.919Z,18.60
2018-04-25T04:53:47.803Z,17.75
2018-04-25T04:54:21.757Z,19.52
2018-04-25T04:54:55.764Z,16.30
2018-04-25T04:55:29.703Z,17.80
2018-04-25T04:56:03.595Z,17.75
2018-04-25T04:56:37.469Z,16.10
2018-04-25T04:57:11.348Z,17.17
2018-04-25T04:57:45.258Z,15.90
2018-04-25T04:58:19.132Z,16.02
2018-04-25T04:58:53.026Z,18.92
2018-04-25T04:59:27.524Z,15.05
2018-04-25T05:00:01.385Z,17.20
2018-04-25T05:00:35.535Z,17.55
2018-04-25T05:01:09.537Z,16.83
2018-04-25T05:01:43.432Z,17.92
2018-04-25T05:02:17.309Z,15.10
2018-04-25T05:02:51.272Z,16.87
2018-04-25T05:03:25.135Z,15.23
2018-04-25T05:03:59.109Z,17.60
2018-04-25T05:04:33.139Z,16.40
2018-04-25T05:05:07.060Z,17.10
2018-04-25T05:05:41.017Z,16.95
2018-04-25T05:06:14.896Z,18.70
2018-04-25T05:06:48.798Z,17.95
2018-04-25T05:07:22.677Z,16.23
2018-04-25T05:07:56.571Z,15.77
2018-04-25T05:08:30.501Z,15.27
2018-04-25T05:09:04.498Z,15.63
2018-04-25T05:09:38.741Z,18.77
2018-04-25T05:10:12.616Z,15.48
2018-04-25T05:10:46.487Z,15.75
2018-04-25T05:11:20.390Z,18.67
2018-04-25T05:11:54.264Z,15.90
2018-04-25T05:12:28.178Z,19.48
2018-04-25T05:13:02.190Z,15.40
2018-04-25T05:13:36.032Z,14.50
2018-04-25T05:14:09.965Z,18.33
2018-04-25T05:14:44.083Z,15.25
2018-04-25T05:15:17.983Z,16.52
2018-04-25T05:15:52.032Z,17.15
2018-04-25T05:16:25.911Z,15.02
2018-04-25T05:16:59.912Z,14.55
2018-04-25T05:17:34.028Z,14.20
2018-04-25T05:18:07.900Z,14.32
2018-04-25T05:18:42.625Z,14.63
2018-04-25T05:19:16.576Z,14.15
2018-04-25T05:19:50.517Z,14.68
2018-04-25T05:20:24.522Z,14.32
2018-04-25T05:20:58.415Z,16.65
2018-04-25T05:21:32.376Z,14.98
2018-04-25T05:22:07.439Z,15.27
2018-04-25T05:22:41.353Z,17.77
2018-04-25T05:23:15.271Z,15.90
2018-04-25T05:23:49.148Z,16.15
2018-04-25T05:24:23.045Z,14.60
2018-04-25T05:24:56.944Z,14.43
2018-04-25T05:25:30.807Z,16.05
2018-04-25T05:26:04.706Z,14.87
2018-04-25T05:26:38.575Z,18.45
2018-04-25T05:27:12.448Z,18.67
2018-04-25T05:27:46.342Z,17.77
2018-04-25T05:28:20.196Z,14.63
2018-04-25T05:28:54.081Z,15.63
2018-04-25T05:29:29.002Z,13.45
2018-04-25T05:30:02.927Z,16.95
2018-04-25T05:30:36.808Z,15.20
2018-04-25T05:31:10.913Z,16.23
2018-04-25T05:31:44.832Z,20.15
2018-04-25T05:32:18.759Z,18.85
2018-04-25T05:32:52.816Z,15.95
2018-04-25T05:33:26.687Z,17.00
2018-04-25T05:34:00.555Z,15.93
2018-04-25T05:34:34.461Z,14.55
2018-04-25T05:35:08.340Z,15.55
2018-04-25T05:35:42.214Z,15.13
2018-04-25T05:36:16.131Z,15.88
2018-04-25T05:36:50.019Z,20.95
2018-04-25T05:37:23.913Z,14.70
2018-04-25T05:37:57.880Z,15.93
2018-04-25T05:38:32.111Z,15.05
2018-04-25T05:39:05.962Z,15.68
2018-04-25T05:39:39.839Z,15.82
2018-04-25T05:40:13.718Z,16.50
2018-04-25T05:40:47.617Z,14.82
2018-04-25T05:42:02.641Z,15.30
2018-04-25T05:42:37.372Z,14.63
2018-04-25T05:43:11.530Z,14.50
2018-04-25T05:43:45.610Z,14.60
2018-04-25T05:44:19.702Z,15.13
2018-04-25T05:44:54.267Z,14.60
2018-04-25T05:45:28.209Z,16.37
2018-04-25T05:46:02.210Z,20.12
2018-04-25T05:46:38.159Z,16.02
2018-04-25T05:47:12.088Z,14.82
2018-04-25T05:47:45.983Z,17.67
2018-04-25T05:48:19.935Z,16.25
2018-04-25T05:48:53.802Z,16.12
2018-04-25T05:49:27.925Z,14.38
2018-04-25T05:50:02.048Z,13.82
2018-04-25T05:50:35.929Z,14.60
2018-04-25T05:51:09.840Z,16.73
2018-04-25T05:51:43.841Z,15.43
2018-04-25T05:52:17.763Z,18.83
2018-04-25T05:52:51.729Z,16.17
2018-04-25T05:53:25.814Z,19.00
2018-04-25T05:53:59.706Z,12.55
2018-04-25T05:54:33.626Z,16.00
2018-04-25T05:55:07.616Z,18.87
2018-04-25T05:55:41.676Z,14.38
2018-04-25T05:56:15.583Z,15.10
2018-04-25T05:56:49.599Z,14.20
2018-04-25T05:57:23.592Z,13.85
2018-04-25T05:57:57.617Z,17.52
2018-04-25T05:58:31.431Z,16.27
2018-04-25T05:59:05.329Z,14.63
2018-04-25T05:59:39.635Z,13.50
2018-04-25T06:00:13.509Z,13.40
2018-04-25T06:00:47.416Z,12.98
2018-04-25T06:01:21.310Z,15.02
2018-04-25T06:01:55.232Z,17.70
2018-04-25T06:02:29.176Z,19.83
2018-04-25T06:03:03.172Z,12.70
2018-04-25T06:03:37.049Z,16.80
2018-04-25T06:04:10.945Z,13.88
2018-04-25T06:04:44.943Z,13.15
2018-04-25T06:05:19.022Z,13.00
2018-04-25T06:05:53.277Z,15.80
2018-04-25T06:06:27.334Z,12.23
2018-04-25T06:07:01.213Z,12.93
2018-04-25T06:08:15.363Z,14.90
2018-04-25T06:08:49.258Z,15.05
2018-04-25T06:09:23.181Z,12.95
2018-04-25T06:09:57.126Z,11.65
2018-04-25T06:10:31.017Z,12.23
2018-04-25T06:11:04.906Z,12.23
2018-04-25T06:11:39.107Z,12.93
2018-04-25T06:12:13.737Z,12.02
2018-04-25T06:12:47.744Z,12.70
2018-04-25T06:13:21.634Z,14.27
2018-04-25T06:13:55.604Z,14.38
2018-04-25T06:14:29.494Z,12.27
2018-04-25T06:15:03.671Z,11.50
2018-04-25T06:15:37.763Z,13.15
2018-04-25T06:16:11.668Z,11.70
2018-04-25T06:16:45.557Z,12.50
2018-04-25T06:17:19.436Z,12.25
2018-04-25T06:17:54.067Z,13.90
2018-04-25T06:18:28.035Z,12.23
2018-04-25T06:19:02.145Z,11.48
2018-04-25T06:19:37.039Z,12.95
2018-04-25T06:20:10.968Z,12.13
2018-04-25T06:20:44.798Z,10.23
2018-04-25T06:21:18.669Z,11.35
2018-04-25T06:21:53.234Z,10.15
2018-04-25T06:22:27.111Z,10.10
2018-04-25T06:23:00.994Z,10.95
2018-04-25T06:23:34.901Z,13.10
2018-04-25T06:24:08.982Z,15.10
2018-04-25T06:24:42.851Z,11.77
2018-04-25T06:25:16.728Z,11.93
2018-04-25T06:25:50.598Z,12.35
2018-04-25T06:26:24.467Z,12.05
2018-04-25T06:26:58.414Z,10.68
2018-04-25T06:27:32.290Z,10.00
2018-04-25T06:28:06.182Z,10.38
2018-04-25T06:28:40.062Z,9.55
2018-04-25T06:29:13.929Z,13.00
2018-04-25T06:29:47.820Z,13.18
2018-04-25T06:30:21.693Z,10.07
2018-04-25T06:30:55.603Z,11.38
2018-04-25T06:31:30.484Z,16.12
2018-04-25T06:32:04.348Z,12.05
2018-04-25T06:32:38.232Z,13.57
2018-04-25T06:33:12.111Z,9.38
2018-04-25T06:33:45.981Z,9.60
2018-04-25T06:34:19.994Z,10.52
2018-04-25T06:34:53.899Z,12.63
2018-04-25T06:35:27.807Z,11.18
2018-04-25T06:36:01.939Z,10.32
2018-04-25T06:36:35.852Z,10.05
2018-04-25T06:37:09.763Z,12.40
2018-04-25T06:37:43.670Z,13.20
2018-04-25T06:38:17.639Z,9.05
2018-04-25T06:38:51.531Z,9.43
2018-04-25T06:39:25.431Z,11.18
2018-04-25T06:39:59.257Z,9.80
2018-04-25T06:40:33.113Z,8.68
2018-04-25T06:41:07.043Z,11.40
2018-04-25T06:41:40.908Z,9.05
2018-04-25T06:42:14.824Z,11.75
2018-04-25T06:42:48.720Z,8.93
2018-04-25T06:43:22.625Z,9.27
2018-04-25T06:43:56.480Z,8.88
2018-04-25T06:44:30.358Z,11.68
2018-04-25T06:45:04.327Z,8.20
2018-04-25T06:45:38.135Z,8.95
2018-04-25T06:46:12.016Z,9.52
2018-04-25T06:46:45.871Z,8.70
2018-04-25T06:47:19.812Z,10.02
2018-04-25T06:47:53.705Z,10.65
2018-04-25T06:48:27.578Z,12.70
2018-04-25T06:49:01.581Z,9.77
2018-04-25T06:49:35.469Z,11.18
2018-04-25T06:50:09.365Z,9.13
2018-04-25T06:50:43.318Z,8.77
2018-04-25T06:51:17.106Z,10.00
2018-04-25T06:51:51.259Z,11.32
2018-04-25T06:52:25.124Z,10.23
2018-04-25T06:52:59.057Z,8.32
2018-04-25T06:53:33.023Z,9.40
2018-04-25T06:54:06.962Z,10.05
2018-04-25T06:54:40.920Z,10.23
2018-04-25T06:55:14.813Z,8.65
2018-04-25T06:55:48.690Z,8.93
2018-04-25T06:56:22.573Z,9.35
2018-04-25T06:56:56.463Z,9.15
2018-04-25T06:57:30.367Z,9.65
2018-04-25T06:58:04.347Z,10.50
2018-04-25T06:58:42.548Z,13.85
2018-04-25T06:59:16.711Z,10.85
2018-04-25T06:59:50.569Z,9.98
2018-04-25T07:00:24.497Z,10.13
2018-04-25T07:00:58.379Z,9.57
2018-04-25T07:01:32.503Z,10.85
2018-04-25T07:02:06.420Z,9.80
2018-04-25T07:02:40.393Z,10.55
2018-04-25T07:03:15.667Z,9.77
2018-04-25T07:03:49.819Z,8.25
2018-04-25T07:04:23.699Z,9.93
2018-04-25T07:04:57.716Z,12.07
2018-04-25T07:05:31.585Z,9.30
2018-04-25T07:06:05.448Z,10.60
2018-04-25T07:06:39.313Z,7.97
2018-04-25T07:07:16.486Z,9.07
2018-04-25T07:07:50.435Z,9.20
2018-04-25T07:08:24.321Z,9.38
2018-04-25T07:08:58.279Z,9.70
2018-04-25T07:09:32.153Z,10.73
2018-04-25T07:10:06.147Z,12.23
2018-04-25T07:10:40.046Z,11.50
2018-04-25T07:11:14.015Z,10.82
2018-04-25T07:11:48.110Z,7.82
2018-04-25T07:12:22.191Z,8.52
2018-04-25T07:12:57.056Z,9.13
2018-04-25T07:13:31.037Z,9.70
2018-04-25T07:14:05.545Z,9.00
2018-04-25T07:14:40.493Z,9.57
2018-04-25T07:15:14.354Z,8.70
2018-04-25T07:15:48.321Z,10.07
2018-04-25T07:16:22.352Z,8.50
2018-04-25T07:16:56.537Z,13.50
2018-04-25T07:17:30.438Z,9.98
2018-04-25T07:18:04.304Z,9.45
2018-04-25T07:18:42.690Z,9.88
2018-04-25T07:19:16.562Z,9.50
2018-04-25T07:19:50.426Z,8.07
2018-04-25T07:20:24.317Z,8.98
2018-04-25T07:20:58.192Z,9.95
2018-04-25T07:21:32.072Z,9.77
2018-04-25T07:22:06.025Z,8.98
2018-04-25T07:22:39.894Z,10.13
2018-04-25T07:23:13.757Z,9.88
2018-04-25T07:23:47.795Z,10.40
2018-04-25T07:24:21.674Z,9.07